sensor_id;sensor_type;location;lat;lon;timestamp;temperature;humidity
17827;DHT22;9038;48.208;16.308;2023-02-26T00:01:58;5.20;78.20
17827;DHT22;9038;48.208;16.308;2023-02-26T00:04:02;5.20;78.10
17827;DHT22;9038;48.208;16.308;2023-02-26T00:06:04;5.20;78.00
17827;DHT22;9038;48.208;16.308;2023-02-26T00:08:08;5.20;78.00
17827;DHT22;9038;48.208;16.308;2023-02-26T00:10:11;5.20;77.90
17827;DHT22;9038;48.208;16.308;2023-02-26T00:12:12;5.10;77.90
17827;DHT22;9038;48.208;16.308;2023-02-26T00:14:15;5.10;77.70
17827;DHT22;9038;48.208;16.308;2023-02-26T00:16:20;5.10;77.60
17827;DHT22;9038;48.208;16.308;2023-02-26T00:18:24;5.10;77.50
17827;DHT22;9038;48.208;16.308;2023-02-26T00:20:26;5.00;76.90
17827;DHT22;9038;48.208;16.308;2023-02-26T00:22:28;5.00;77.20
17827;DHT22;9038;48.208;16.308;2023-02-26T00:24:32;5.00;76.70
17827;DHT22;9038;48.208;16.308;2023-02-26T00:26:33;5.00;76.40
17827;DHT22;9038;48.208;16.308;2023-02-26T00:28:35;5.00;76.50
17827;DHT22;9038;48.208;16.308;2023-02-26T00:30:37;5.00;76.50
17827;DHT22;9038;48.208;16.308;2023-02-26T00:32:39;5.00;76.70
17827;DHT22;9038;48.208;16.308;2023-02-26T00:34:41;5.00;76.90
17827;DHT22;9038;48.208;16.308;2023-02-26T00:36:44;5.00;76.80
17827;DHT22;9038;48.208;16.308;2023-02-26T00:38:52;4.90;76.80
17827;DHT22;9038;48.208;16.308;2023-02-26T00:40:59;4.90;77.10
17827;DHT22;9038;48.208;16.308;2023-02-26T00:43:01;4.90;77.30
17827;DHT22;9038;48.208;16.308;2023-02-26T00:45:04;4.90;76.90
17827;DHT22;9038;48.208;16.308;2023-02-26T00:47:12;4.80;77.40
17827;DHT22;9038;48.208;16.308;2023-02-26T00:49:17;4.80;76.10
17827;DHT22;9038;48.208;16.308;2023-02-26T00:51:26;4.70;76.50
17827;DHT22;9038;48.208;16.308;2023-02-26T00:53:32;4.70;76.10
17827;DHT22;9038;48.208;16.308;2023-02-26T00:55:34;4.70;76.60
17827;DHT22;9038;48.208;16.308;2023-02-26T00:57:37;4.70;76.70
17827;DHT22;9038;48.208;16.308;2023-02-26T00:59:39;4.70;76.60
17827;DHT22;9038;48.208;16.308;2023-02-26T01:01:41;4.70;76.50
17827;DHT22;9038;48.208;16.308;2023-02-26T01:03:43;4.70;76.00
17827;DHT22;9038;48.208;16.308;2023-02-26T01:05:45;4.70;76.30
17827;DHT22;9038;48.208;16.308;2023-02-26T01:07:49;4.60;76.70
17827;DHT22;9038;48.208;16.308;2023-02-26T01:09:54;4.50;76.40
17827;DHT22;9038;48.208;16.308;2023-02-26T01:11:57;4.50;76.80
17827;DHT22;9038;48.208;16.308;2023-02-26T01:14:02;4.50;77.40
17827;DHT22;9038;48.208;16.308;2023-02-26T01:16:06;4.50;76.80
17827;DHT22;9038;48.208;16.308;2023-02-26T01:18:10;4.40;76.30
17827;DHT22;9038;48.208;16.308;2023-02-26T01:20:13;4.40;76.40
17827;DHT22;9038;48.208;16.308;2023-02-26T01:22:17;4.40;76.40
17827;DHT22;9038;48.208;16.308;2023-02-26T01:24:20;4.40;76.30
17827;DHT22;9038;48.208;16.308;2023-02-26T01:26:24;4.40;76.30
17827;DHT22;9038;48.208;16.308;2023-02-26T01:28:27;4.40;76.10
17827;DHT22;9038;48.208;16.308;2023-02-26T01:30:31;4.40;75.50
17827;DHT22;9038;48.208;16.308;2023-02-26T01:32:36;4.40;75.20
17827;DHT22;9038;48.208;16.308;2023-02-26T01:34:43;4.40;75.10
17827;DHT22;9038;48.208;16.308;2023-02-26T01:36:50;4.30;75.10
17827;DHT22;9038;48.208;16.308;2023-02-26T01:38:56;4.30;74.60
17827;DHT22;9038;48.208;16.308;2023-02-26T01:41:08;4.30;75.10
17827;DHT22;9038;48.208;16.308;2023-02-26T01:43:13;4.20;74.70
17827;DHT22;9038;48.208;16.308;2023-02-26T01:45:18;4.20;75.10
17827;DHT22;9038;48.208;16.308;2023-02-26T01:47:25;4.20;75.30
17827;DHT22;9038;48.208;16.308;2023-02-26T01:49:29;4.20;75.00
17827;DHT22;9038;48.208;16.308;2023-02-26T01:51:42;4.20;75.30
17827;DHT22;9038;48.208;16.308;2023-02-26T01:53:44;4.20;75.20
17827;DHT22;9038;48.208;16.308;2023-02-26T01:55:46;4.10;75.00
17827;DHT22;9038;48.208;16.308;2023-02-26T01:57:50;4.10;74.90
17827;DHT22;9038;48.208;16.308;2023-02-26T01:59:52;4.20;75.30
17827;DHT22;9038;48.208;16.308;2023-02-26T02:01:55;4.20;75.00
17827;DHT22;9038;48.208;16.308;2023-02-26T02:03:59;4.20;74.60
17827;DHT22;9038;48.208;16.308;2023-02-26T02:06:02;4.20;74.90
17827;DHT22;9038;48.208;16.308;2023-02-26T02:08:04;4.20;74.80
17827;DHT22;9038;48.208;16.308;2023-02-26T02:10:06;4.10;74.10
17827;DHT22;9038;48.208;16.308;2023-02-26T02:12:19;4.10;74.20
17827;DHT22;9038;48.208;16.308;2023-02-26T02:14:23;4.10;74.50
17827;DHT22;9038;48.208;16.308;2023-02-26T02:16:30;4.10;74.40
17827;DHT22;9038;48.208;16.308;2023-02-26T02:18:35;4.10;74.00
17827;DHT22;9038;48.208;16.308;2023-02-26T02:20:46;4.00;73.90
17827;DHT22;9038;48.208;16.308;2023-02-26T02:22:52;4.00;73.70
17827;DHT22;9038;48.208;16.308;2023-02-26T02:25:03;3.90;73.80
17827;DHT22;9038;48.208;16.308;2023-02-26T02:27:12;3.90;74.00
17827;DHT22;9038;48.208;16.308;2023-02-26T02:29:24;3.90;74.30
17827;DHT22;9038;48.208;16.308;2023-02-26T02:31:28;3.90;75.10
17827;DHT22;9038;48.208;16.308;2023-02-26T02:33:33;3.90;74.40
17827;DHT22;9038;48.208;16.308;2023-02-26T02:35:37;3.90;74.20
17827;DHT22;9038;48.208;16.308;2023-02-26T02:37:43;3.80;74.20
17827;DHT22;9038;48.208;16.308;2023-02-26T02:39:53;3.80;74.50
17827;DHT22;9038;48.208;16.308;2023-02-26T02:41:57;3.80;74.60
17827;DHT22;9038;48.208;16.308;2023-02-26T02:44:00;3.80;74.30
17827;DHT22;9038;48.208;16.308;2023-02-26T02:46:04;3.70;74.60
17827;DHT22;9038;48.208;16.308;2023-02-26T02:48:09;3.70;74.80
17827;DHT22;9038;48.208;16.308;2023-02-26T02:50:13;3.80;74.90
17827;DHT22;9038;48.208;16.308;2023-02-26T02:52:16;3.80;74.90
17827;DHT22;9038;48.208;16.308;2023-02-26T02:54:19;3.70;74.70
17827;DHT22;9038;48.208;16.308;2023-02-26T02:56:23;3.70;74.90
17827;DHT22;9038;48.208;16.308;2023-02-26T02:58:30;3.70;74.90
17827;DHT22;9038;48.208;16.308;2023-02-26T03:00:33;3.80;74.90
17827;DHT22;9038;48.208;16.308;2023-02-26T03:02:36;3.80;74.90
17827;DHT22;9038;48.208;16.308;2023-02-26T03:04:41;3.80;74.60
17827;DHT22;9038;48.208;16.308;2023-02-26T03:06:44;3.80;74.70
17827;DHT22;9038;48.208;16.308;2023-02-26T03:08:46;3.80;74.40
17827;DHT22;9038;48.208;16.308;2023-02-26T03:10:48;3.80;74.60
17827;DHT22;9038;48.208;16.308;2023-02-26T03:12:50;3.80;74.90
17827;DHT22;9038;48.208;16.308;2023-02-26T03:14:51;3.80;74.80
17827;DHT22;9038;48.208;16.308;2023-02-26T03:19:12;3.80;75.30
17827;DHT22;9038;48.208;16.308;2023-02-26T03:21:19;3.80;75.30
17827;DHT22;9038;48.208;16.308;2023-02-26T03:23:24;3.80;75.10
17827;DHT22;9038;48.208;16.308;2023-02-26T03:25:30;3.80;74.80
17827;DHT22;9038;48.208;16.308;2023-02-26T03:27:41;3.80;74.90
17827;DHT22;9038;48.208;16.308;2023-02-26T03:29:45;3.80;75.20
17827;DHT22;9038;48.208;16.308;2023-02-26T03:31:52;3.70;75.40
17827;DHT22;9038;48.208;16.308;2023-02-26T03:33:56;3.80;75.50
17827;DHT22;9038;48.208;16.308;2023-02-26T03:36:00;3.80;75.50
17827;DHT22;9038;48.208;16.308;2023-02-26T03:38:05;3.90;75.90
17827;DHT22;9038;48.208;16.308;2023-02-26T03:40:08;4.00;75.20
17827;DHT22;9038;48.208;16.308;2023-02-26T03:42:13;4.00;75.10
17827;DHT22;9038;48.208;16.308;2023-02-26T03:44:18;3.90;75.00
17827;DHT22;9038;48.208;16.308;2023-02-26T03:46:25;3.90;75.50
17827;DHT22;9038;48.208;16.308;2023-02-26T03:48:28;4.00;75.20
17827;DHT22;9038;48.208;16.308;2023-02-26T03:50:32;4.00;75.10
17827;DHT22;9038;48.208;16.308;2023-02-26T03:52:36;3.90;75.30
17827;DHT22;9038;48.208;16.308;2023-02-26T03:54:41;4.00;75.10
17827;DHT22;9038;48.208;16.308;2023-02-26T03:56:44;4.00;75.10
17827;DHT22;9038;48.208;16.308;2023-02-26T03:58:46;4.00;74.80
17827;DHT22;9038;48.208;16.308;2023-02-26T04:00:49;4.00;73.90
17827;DHT22;9038;48.208;16.308;2023-02-26T04:02:56;4.10;74.20
17827;DHT22;9038;48.208;16.308;2023-02-26T04:04:59;4.00;73.90
17827;DHT22;9038;48.208;16.308;2023-02-26T04:07:02;4.00;73.90
17827;DHT22;9038;48.208;16.308;2023-02-26T04:09:04;4.00;74.00
17827;DHT22;9038;48.208;16.308;2023-02-26T04:11:08;4.00;74.10
17827;DHT22;9038;48.208;16.308;2023-02-26T04:13:11;4.10;74.20
17827;DHT22;9038;48.208;16.308;2023-02-26T04:15:13;4.10;74.50
17827;DHT22;9038;48.208;16.308;2023-02-26T04:17:15;4.10;74.60
17827;DHT22;9038;48.208;16.308;2023-02-26T04:19:16;4.10;74.90
17827;DHT22;9038;48.208;16.308;2023-02-26T04:21:19;4.10;76.00
17827;DHT22;9038;48.208;16.308;2023-02-26T04:23:21;4.10;77.00
17827;DHT22;9038;48.208;16.308;2023-02-26T04:25:23;4.20;77.70
17827;DHT22;9038;48.208;16.308;2023-02-26T04:27:26;4.10;77.00
17827;DHT22;9038;48.208;16.308;2023-02-26T04:29:28;4.10;77.00
17827;DHT22;9038;48.208;16.308;2023-02-26T04:31:29;4.10;77.40
17827;DHT22;9038;48.208;16.308;2023-02-26T04:33:31;4.10;77.40
17827;DHT22;9038;48.208;16.308;2023-02-26T04:35:33;4.10;77.50
17827;DHT22;9038;48.208;16.308;2023-02-26T04:37:35;4.20;77.70
17827;DHT22;9038;48.208;16.308;2023-02-26T04:39:37;4.10;77.00
17827;DHT22;9038;48.208;16.308;2023-02-26T04:41:38;4.10;77.00
17827;DHT22;9038;48.208;16.308;2023-02-26T04:43:42;4.10;77.20
17827;DHT22;9038;48.208;16.308;2023-02-26T04:45:44;4.10;77.30
17827;DHT22;9038;48.208;16.308;2023-02-26T04:47:46;4.10;77.60
17827;DHT22;9038;48.208;16.308;2023-02-26T04:49:47;4.10;77.50
17827;DHT22;9038;48.208;16.308;2023-02-26T04:51:49;4.10;77.70
17827;DHT22;9038;48.208;16.308;2023-02-26T04:53:51;4.10;77.80
17827;DHT22;9038;48.208;16.308;2023-02-26T04:55:52;4.10;78.10
17827;DHT22;9038;48.208;16.308;2023-02-26T04:57:54;4.10;79.20
17827;DHT22;9038;48.208;16.308;2023-02-26T04:59:57;4.10;79.40
17827;DHT22;9038;48.208;16.308;2023-02-26T05:01:59;4.10;79.80
17827;DHT22;9038;48.208;16.308;2023-02-26T05:04:01;4.00;79.80
17827;DHT22;9038;48.208;16.308;2023-02-26T05:06:03;4.00;81.30
17827;DHT22;9038;48.208;16.308;2023-02-26T05:08:05;3.90;82.10
17827;DHT22;9038;48.208;16.308;2023-02-26T05:10:07;3.90;82.60
17827;DHT22;9038;48.208;16.308;2023-02-26T05:12:09;3.90;83.50
17827;DHT22;9038;48.208;16.308;2023-02-26T05:14:11;3.90;84.00
17827;DHT22;9038;48.208;16.308;2023-02-26T05:16:14;3.90;84.90
17827;DHT22;9038;48.208;16.308;2023-02-26T05:18:15;3.90;85.40
17827;DHT22;9038;48.208;16.308;2023-02-26T05:20:18;3.90;87.10
17827;DHT22;9038;48.208;16.308;2023-02-26T05:22:19;3.80;87.40
17827;DHT22;9038;48.208;16.308;2023-02-26T05:24:29;3.90;87.30
17827;DHT22;9038;48.208;16.308;2023-02-26T05:26:31;3.80;87.80
17827;DHT22;9038;48.208;16.308;2023-02-26T05:28:45;3.80;89.20
17827;DHT22;9038;48.208;16.308;2023-02-26T05:30:48;3.80;88.80
17827;DHT22;9038;48.208;16.308;2023-02-26T05:32:51;3.80;89.90
17827;DHT22;9038;48.208;16.308;2023-02-26T05:34:54;3.80;90.30
17827;DHT22;9038;48.208;16.308;2023-02-26T05:36:55;3.80;89.60
17827;DHT22;9038;48.208;16.308;2023-02-26T05:38:57;3.80;90.30
17827;DHT22;9038;48.208;16.308;2023-02-26T05:40:59;3.90;90.50
17827;DHT22;9038;48.208;16.308;2023-02-26T05:43:01;3.90;90.70
17827;DHT22;9038;48.208;16.308;2023-02-26T05:45:04;3.90;90.70
17827;DHT22;9038;48.208;16.308;2023-02-26T05:47:06;3.80;90.60
17827;DHT22;9038;48.208;16.308;2023-02-26T05:49:09;3.90;91.20
17827;DHT22;9038;48.208;16.308;2023-02-26T05:51:11;3.90;91.10
17827;DHT22;9038;48.208;16.308;2023-02-26T05:53:13;3.90;91.30
17827;DHT22;9038;48.208;16.308;2023-02-26T05:55:15;3.90;91.00
17827;DHT22;9038;48.208;16.308;2023-02-26T05:57:17;3.80;91.10
17827;DHT22;9038;48.208;16.308;2023-02-26T05:59:19;3.80;91.20
17827;DHT22;9038;48.208;16.308;2023-02-26T06:01:20;3.70;91.10
17827;DHT22;9038;48.208;16.308;2023-02-26T06:03:22;3.70;91.00
17827;DHT22;9038;48.208;16.308;2023-02-26T06:05:25;3.70;91.30
17827;DHT22;9038;48.208;16.308;2023-02-26T06:07:27;3.70;91.40
17827;DHT22;9038;48.208;16.308;2023-02-26T06:09:29;3.70;91.60
17827;DHT22;9038;48.208;16.308;2023-02-26T06:11:31;3.70;91.60
17827;DHT22;9038;48.208;16.308;2023-02-26T06:13:33;3.70;91.30
17827;DHT22;9038;48.208;16.308;2023-02-26T06:15:35;3.70;91.60
17827;DHT22;9038;48.208;16.308;2023-02-26T06:17:37;3.70;91.90
17827;DHT22;9038;48.208;16.308;2023-02-26T06:19:39;3.70;91.60
17827;DHT22;9038;48.208;16.308;2023-02-26T06:21:43;3.70;91.60
17827;DHT22;9038;48.208;16.308;2023-02-26T06:23:44;3.70;91.30
17827;DHT22;9038;48.208;16.308;2023-02-26T06:25:46;3.80;91.40
17827;DHT22;9038;48.208;16.308;2023-02-26T06:27:48;3.80;91.30
17827;DHT22;9038;48.208;16.308;2023-02-26T06:29:50;3.80;91.20
17827;DHT22;9038;48.208;16.308;2023-02-26T06:31:51;3.90;91.10
17827;DHT22;9038;48.208;16.308;2023-02-26T06:33:53;3.90;90.70
17827;DHT22;9038;48.208;16.308;2023-02-26T06:35:55;4.00;90.50
17827;DHT22;9038;48.208;16.308;2023-02-26T06:38:00;4.10;90.90
17827;DHT22;9038;48.208;16.308;2023-02-26T06:40:02;4.10;90.70
17827;DHT22;9038;48.208;16.308;2023-02-26T06:42:05;4.10;90.50
17827;DHT22;9038;48.208;16.308;2023-02-26T06:44:08;4.20;90.30
17827;DHT22;9038;48.208;16.308;2023-02-26T06:46:10;4.20;90.00
17827;DHT22;9038;48.208;16.308;2023-02-26T06:48:11;4.20;89.40
17827;DHT22;9038;48.208;16.308;2023-02-26T06:50:13;4.20;90.10
17827;DHT22;9038;48.208;16.308;2023-02-26T06:52:15;4.20;89.10
17827;DHT22;9038;48.208;16.308;2023-02-26T06:54:18;4.30;90.00
17827;DHT22;9038;48.208;16.308;2023-02-26T06:56:20;4.30;90.00
17827;DHT22;9038;48.208;16.308;2023-02-26T06:58:22;4.30;89.80
17827;DHT22;9038;48.208;16.308;2023-02-26T07:00:24;4.30;90.20
17827;DHT22;9038;48.208;16.308;2023-02-26T07:02:26;4.30;89.80
17827;DHT22;9038;48.208;16.308;2023-02-26T07:04:28;4.30;89.20
17827;DHT22;9038;48.208;16.308;2023-02-26T07:06:30;4.20;89.40
17827;DHT22;9038;48.208;16.308;2023-02-26T07:08:32;4.20;89.40
17827;DHT22;9038;48.208;16.308;2023-02-26T07:10:35;4.20;89.10
17827;DHT22;9038;48.208;16.308;2023-02-26T07:12:37;4.20;90.00
17827;DHT22;9038;48.208;16.308;2023-02-26T07:14:39;4.30;90.00
17827;DHT22;9038;48.208;16.308;2023-02-26T07:16:42;4.30;89.10
17827;DHT22;9038;48.208;16.308;2023-02-26T07:18:44;4.30;88.60
17827;DHT22;9038;48.208;16.308;2023-02-26T07:20:47;4.30;89.00
17827;DHT22;9038;48.208;16.308;2023-02-26T07:22:49;4.30;89.10
17827;DHT22;9038;48.208;16.308;2023-02-26T07:24:51;4.40;89.80
17827;DHT22;9038;48.208;16.308;2023-02-26T07:26:54;4.40;89.50
17827;DHT22;9038;48.208;16.308;2023-02-26T07:28:55;4.40;89.50
17827;DHT22;9038;48.208;16.308;2023-02-26T07:30:57;4.40;87.70
17827;DHT22;9038;48.208;16.308;2023-02-26T07:32:59;4.40;87.90
17827;DHT22;9038;48.208;16.308;2023-02-26T07:35:01;4.40;88.40
17827;DHT22;9038;48.208;16.308;2023-02-26T07:37:03;4.40;88.20
17827;DHT22;9038;48.208;16.308;2023-02-26T07:39:05;4.50;89.10
17827;DHT22;9038;48.208;16.308;2023-02-26T07:41:06;4.60;88.80
17827;DHT22;9038;48.208;16.308;2023-02-26T07:43:10;4.60;86.20
17827;DHT22;9038;48.208;16.308;2023-02-26T07:45:11;4.70;86.30
17827;DHT22;9038;48.208;16.308;2023-02-26T07:47:13;4.80;86.30
17827;DHT22;9038;48.208;16.308;2023-02-26T07:49:15;4.90;85.90
17827;DHT22;9038;48.208;16.308;2023-02-26T07:51:17;4.90;84.10
17827;DHT22;9038;48.208;16.308;2023-02-26T07:53:18;4.90;83.80
17827;DHT22;9038;48.208;16.308;2023-02-26T07:55:20;5.00;84.00
17827;DHT22;9038;48.208;16.308;2023-02-26T07:57:22;5.20;83.30
17827;DHT22;9038;48.208;16.308;2023-02-26T07:59:25;5.40;81.70
17827;DHT22;9038;48.208;16.308;2023-02-26T08:01:27;5.60;80.60
17827;DHT22;9038;48.208;16.308;2023-02-26T08:03:29;5.80;79.60
17827;DHT22;9038;48.208;16.308;2023-02-26T08:05:34;6.00;79.50
17827;DHT22;9038;48.208;16.308;2023-02-26T08:07:36;6.30;79.30
17827;DHT22;9038;48.208;16.308;2023-02-26T08:09:38;6.40;76.60
17827;DHT22;9038;48.208;16.308;2023-02-26T08:11:40;6.50;75.30
17827;DHT22;9038;48.208;16.308;2023-02-26T08:13:42;6.50;74.90
17827;DHT22;9038;48.208;16.308;2023-02-26T08:15:46;6.60;75.10
17827;DHT22;9038;48.208;16.308;2023-02-26T08:17:47;6.70;72.90
17827;DHT22;9038;48.208;16.308;2023-02-26T08:19:52;7.30;72.90
17827;DHT22;9038;48.208;16.308;2023-02-26T08:21:54;8.30;71.40
17827;DHT22;9038;48.208;16.308;2023-02-26T08:23:56;9.40;67.00
17827;DHT22;9038;48.208;16.308;2023-02-26T08:26:00;10.10;60.70
17827;DHT22;9038;48.208;16.308;2023-02-26T08:28:03;10.60;75.20
17827;DHT22;9038;48.208;16.308;2023-02-26T08:30:05;11.40;56.60
17827;DHT22;9038;48.208;16.308;2023-02-26T08:32:09;12.20;51.40
17827;DHT22;9038;48.208;16.308;2023-02-26T08:34:11;12.50;47.30
17827;DHT22;9038;48.208;16.308;2023-02-26T08:36:12;12.50;46.90
17827;DHT22;9038;48.208;16.308;2023-02-26T08:38:14;12.10;46.90
17827;DHT22;9038;48.208;16.308;2023-02-26T08:40:16;11.90;47.90
17827;DHT22;9038;48.208;16.308;2023-02-26T08:42:18;11.90;48.20
17827;DHT22;9038;48.208;16.308;2023-02-26T08:44:23;12.20;47.40
17827;DHT22;9038;48.208;16.308;2023-02-26T08:46:25;12.50;47.00
17827;DHT22;9038;48.208;16.308;2023-02-26T08:48:28;12.40;44.70
17827;DHT22;9038;48.208;16.308;2023-02-26T08:50:30;11.90;44.10
17827;DHT22;9038;48.208;16.308;2023-02-26T08:52:31;11.40;45.10
17827;DHT22;9038;48.208;16.308;2023-02-26T08:54:33;11.00;45.30
17827;DHT22;9038;48.208;16.308;2023-02-26T08:56:35;10.60;45.40
17827;DHT22;9038;48.208;16.308;2023-02-26T08:58:37;10.90;46.90
17827;DHT22;9038;48.208;16.308;2023-02-26T09:00:38;11.60;44.40
17827;DHT22;9038;48.208;16.308;2023-02-26T09:02:40;11.60;42.30
17827;DHT22;9038;48.208;16.308;2023-02-26T09:04:43;11.80;43.40
17827;DHT22;9038;48.208;16.308;2023-02-26T09:06:45;12.40;43.00
17827;DHT22;9038;48.208;16.308;2023-02-26T09:08:47;13.40;40.70
17827;DHT22;9038;48.208;16.308;2023-02-26T09:12:51;15.70;35.10
17827;DHT22;9038;48.208;16.308;2023-02-26T09:14:53;16.90;32.10
17827;DHT22;9038;48.208;16.308;2023-02-26T09:16:54;18.00;31.90
17827;DHT22;9038;48.208;16.308;2023-02-26T09:18:56;18.80;28.80
17827;DHT22;9038;48.208;16.308;2023-02-26T09:20:59;19.10;28.50
17827;DHT22;9038;48.208;16.308;2023-02-26T09:23:02;19.30;28.20
17827;DHT22;9038;48.208;16.308;2023-02-26T09:25:04;19.60;27.50
17827;DHT22;9038;48.208;16.308;2023-02-26T09:27:06;19.80;27.90
17827;DHT22;9038;48.208;16.308;2023-02-26T09:29:07;20.20;26.80
17827;DHT22;9038;48.208;16.308;2023-02-26T09:31:10;19.90;26.60
17827;DHT22;9038;48.208;16.308;2023-02-26T09:33:12;19.60;27.20
17827;DHT22;9038;48.208;16.308;2023-02-26T09:35:14;18.70;27.20
17827;DHT22;9038;48.208;16.308;2023-02-26T09:37:17;18.10;27.80
17827;DHT22;9038;48.208;16.308;2023-02-26T09:39:19;17.20;28.30
17827;DHT22;9038;48.208;16.308;2023-02-26T09:41:23;16.10;29.20
17827;DHT22;9038;48.208;16.308;2023-02-26T09:43:31;15.50;30.00
17827;DHT22;9038;48.208;16.308;2023-02-26T09:45:36;15.20;30.30
17827;DHT22;9038;48.208;16.308;2023-02-26T09:47:39;15.40;31.10
17827;DHT22;9038;48.208;16.308;2023-02-26T09:49:47;15.50;30.30
17827;DHT22;9038;48.208;16.308;2023-02-26T09:51:50;15.30;30.10
17827;DHT22;9038;48.208;16.308;2023-02-26T09:53:54;15.00;30.50
17827;DHT22;9038;48.208;16.308;2023-02-26T09:55:59;15.50;29.90
17827;DHT22;9038;48.208;16.308;2023-02-26T09:58:03;16.30;29.30
17827;DHT22;9038;48.208;16.308;2023-02-26T10:00:21;16.90;28.50
17827;DHT22;9038;48.208;16.308;2023-02-26T10:02:25;16.90;28.30
17827;DHT22;9038;48.208;16.308;2023-02-26T10:04:38;17.80;28.20
17827;DHT22;9038;48.208;16.308;2023-02-26T10:06:46;19.00;27.50
17827;DHT22;9038;48.208;16.308;2023-02-26T10:08:52;19.90;25.70
17827;DHT22;9038;48.208;16.308;2023-02-26T10:10:57;19.80;25.20
17827;DHT22;9038;48.208;16.308;2023-02-26T10:13:02;17.90;25.20
17827;DHT22;9038;48.208;16.308;2023-02-26T10:15:05;16.20;27.10
17827;DHT22;9038;48.208;16.308;2023-02-26T10:17:11;14.80;28.30
17827;DHT22;9038;48.208;16.308;2023-02-26T10:19:18;13.90;29.90
17827;DHT22;9038;48.208;16.308;2023-02-26T10:21:22;13.40;30.50
17827;DHT22;9038;48.208;16.308;2023-02-26T10:23:27;12.80;31.70
17827;DHT22;9038;48.208;16.308;2023-02-26T10:25:33;12.70;32.70
17827;DHT22;9038;48.208;16.308;2023-02-26T10:27:43;13.20;32.00
17827;DHT22;9038;48.208;16.308;2023-02-26T10:29:57;12.90;30.80
17827;DHT22;9038;48.208;16.308;2023-02-26T10:32:02;13.00;30.90
17827;DHT22;9038;48.208;16.308;2023-02-26T10:34:12;13.10;31.30
17827;DHT22;9038;48.208;16.308;2023-02-26T10:36:16;13.20;30.30
17827;DHT22;9038;48.208;16.308;2023-02-26T10:38:21;12.70;30.60
17827;DHT22;9038;48.208;16.308;2023-02-26T10:40:27;11.90;31.00
17827;DHT22;9038;48.208;16.308;2023-02-26T10:42:31;11.50;32.80
17827;DHT22;9038;48.208;16.308;2023-02-26T10:44:37;11.40;33.50
17827;DHT22;9038;48.208;16.308;2023-02-26T10:46:45;11.60;33.40
17827;DHT22;9038;48.208;16.308;2023-02-26T10:48:56;12.40;32.70
17827;DHT22;9038;48.208;16.308;2023-02-26T10:51:00;12.60;32.40
17827;DHT22;9038;48.208;16.308;2023-02-26T10:53:07;12.50;32.10
17827;DHT22;9038;48.208;16.308;2023-02-26T10:57:33;11.50;33.10
17827;DHT22;9038;48.208;16.308;2023-02-26T10:59:37;10.90;34.90
17827;DHT22;9038;48.208;16.308;2023-02-26T11:01:39;10.20;37.90
17827;DHT22;9038;48.208;16.308;2023-02-26T11:03:41;9.70;41.20
17827;DHT22;9038;48.208;16.308;2023-02-26T11:05:44;9.50;41.90
17827;DHT22;9038;48.208;16.308;2023-02-26T11:07:47;9.10;44.50
17827;DHT22;9038;48.208;16.308;2023-02-26T11:09:50;8.80;47.00
17827;DHT22;9038;48.208;16.308;2023-02-26T11:11:52;8.40;48.50
17827;DHT22;9038;48.208;16.308;2023-02-26T11:13:54;8.20;49.90
17827;DHT22;9038;48.208;16.308;2023-02-26T11:16:00;8.30;51.10
17827;DHT22;9038;48.208;16.308;2023-02-26T11:18:02;8.50;46.80
17827;DHT22;9038;48.208;16.308;2023-02-26T11:20:14;8.70;44.90
17827;DHT22;9038;48.208;16.308;2023-02-26T11:22:16;8.90;44.30
17827;DHT22;9038;48.208;16.308;2023-02-26T11:24:20;9.00;43.50
17827;DHT22;9038;48.208;16.308;2023-02-26T11:26:27;9.00;43.60
17827;DHT22;9038;48.208;16.308;2023-02-26T11:28:34;8.90;44.60
17827;DHT22;9038;48.208;16.308;2023-02-26T11:30:37;8.80;43.60
17827;DHT22;9038;48.208;16.308;2023-02-26T11:32:40;8.70;45.30
17827;DHT22;9038;48.208;16.308;2023-02-26T11:34:45;8.60;46.70
17827;DHT22;9038;48.208;16.308;2023-02-26T11:36:47;8.50;48.30
17827;DHT22;9038;48.208;16.308;2023-02-26T11:38:51;8.40;47.80
17827;DHT22;9038;48.208;16.308;2023-02-26T11:40:55;8.20;49.90
17827;DHT22;9038;48.208;16.308;2023-02-26T11:42:58;7.90;55.00
17827;DHT22;9038;48.208;16.308;2023-02-26T11:45:00;7.80;60.20
17827;DHT22;9038;48.208;16.308;2023-02-26T11:47:04;7.80;59.40
17827;DHT22;9038;48.208;16.308;2023-02-26T11:49:08;7.90;57.40
17827;DHT22;9038;48.208;16.308;2023-02-26T11:51:15;8.10;56.20
17827;DHT22;9038;48.208;16.308;2023-02-26T11:53:22;8.40;51.80
17827;DHT22;9038;48.208;16.308;2023-02-26T11:55:26;8.70;47.80
17827;DHT22;9038;48.208;16.308;2023-02-26T11:57:30;9.40;47.40
17827;DHT22;9038;48.208;16.308;2023-02-26T11:59:33;10.00;43.00
17827;DHT22;9038;48.208;16.308;2023-02-26T12:01:35;10.30;42.50
17827;DHT22;9038;48.208;16.308;2023-02-26T12:03:39;10.30;42.20
17827;DHT22;9038;48.208;16.308;2023-02-26T12:05:47;9.70;42.20
17827;DHT22;9038;48.208;16.308;2023-02-26T12:07:49;9.10;43.90
17827;DHT22;9038;48.208;16.308;2023-02-26T12:09:51;8.70;46.70
17827;DHT22;9038;48.208;16.308;2023-02-26T12:12:03;8.40;51.70
17827;DHT22;9038;48.208;16.308;2023-02-26T12:14:13;8.10;52.40
17827;DHT22;9038;48.208;16.308;2023-02-26T12:16:19;7.60;57.00
17827;DHT22;9038;48.208;16.308;2023-02-26T12:18:34;7.30;56.80
17827;DHT22;9038;48.208;16.308;2023-02-26T12:20:39;7.30;58.70
17827;DHT22;9038;48.208;16.308;2023-02-26T12:22:49;7.30;56.10
17827;DHT22;9038;48.208;16.308;2023-02-26T12:25:04;7.40;55.20
17827;DHT22;9038;48.208;16.308;2023-02-26T12:27:10;7.50;55.40
17827;DHT22;9038;48.208;16.308;2023-02-26T12:34:05;8.30;53.40
17827;DHT22;9038;48.208;16.308;2023-02-26T12:36:13;8.70;51.20
17827;DHT22;9038;48.208;16.308;2023-02-26T12:38:33;8.80;49.30
17827;DHT22;9038;48.208;16.308;2023-02-26T12:40:57;8.90;49.90
17827;DHT22;9038;48.208;16.308;2023-02-26T12:43:04;8.90;49.40
17827;DHT22;9038;48.208;16.308;2023-02-26T12:45:12;8.70;50.00
17827;DHT22;9038;48.208;16.308;2023-02-26T12:47:30;8.50;51.50
17827;DHT22;9038;48.208;16.308;2023-02-26T12:51:56;7.90;47.50
17827;DHT22;9038;48.208;16.308;2023-02-26T12:54:09;7.70;49.10
17827;DHT22;9038;48.208;16.308;2023-02-26T12:56:21;7.60;49.50
17827;DHT22;9038;48.208;16.308;2023-02-26T12:58:30;7.60;50.40
17827;DHT22;9038;48.208;16.308;2023-02-26T13:00:38;7.50;52.00
17827;DHT22;9038;48.208;16.308;2023-02-26T13:02:53;7.60;55.70
17827;DHT22;9038;48.208;16.308;2023-02-26T13:05:06;7.70;53.50
17827;DHT22;9038;48.208;16.308;2023-02-26T13:07:15;7.70;52.70
17827;DHT22;9038;48.208;16.308;2023-02-26T13:09:24;7.80;52.10
17827;DHT22;9038;48.208;16.308;2023-02-26T13:11:34;7.90;51.70
17827;DHT22;9038;48.208;16.308;2023-02-26T13:16:09;7.70;49.80
17827;DHT22;9038;48.208;16.308;2023-02-26T13:18:14;7.70;51.80
17827;DHT22;9038;48.208;16.308;2023-02-26T13:20:23;7.70;51.10
17827;DHT22;9038;48.208;16.308;2023-02-26T13:22:29;7.70;50.20
17827;DHT22;9038;48.208;16.308;2023-02-26T13:24:35;7.70;49.10
17827;DHT22;9038;48.208;16.308;2023-02-26T13:26:39;7.60;48.00
17827;DHT22;9038;48.208;16.308;2023-02-26T13:28:43;7.50;47.90
17827;DHT22;9038;48.208;16.308;2023-02-26T13:30:47;7.30;47.80